Time;durP1;ratioP1;P1;durP2;ratioP2;P2;SDS_P1;SDS_P2;PMS_P1;PMS_P2;Temp;Humidity;BMP_temperature;BMP_pressure;BME280_temperature;BME280_humidity;BME280_pressure;Samples;Min_cycle;Max_cycle;Signal;HPM_P1;HPM_P2
2021/05/20 00:01:46;;;;;;;43.95;25.50;;;8.70;99.90;;;;;;5022712;28;20077;-70
2021/05/20 00:04:18;;;;;;;40.78;24.48;;;8.70;99.90;;;;;;5007480;28;20049;-71
2021/05/20 00:06:46;;;;;;;46.60;26.08;;;8.60;99.90;;;;;;5006303;28;20072;-70
2021/05/20 00:09:19;;;;;;;48.42;26.42;;;8.60;99.90;;;;;;5011539;28;20618;-70
2021/05/20 00:11:46;;;;;;;46.10;28.35;;;8.60;99.90;;;;;;5022168;28;20136;-70
2021/05/20 00:14:18;;;;;;;51.13;28.98;;;8.60;99.90;;;;;;4990841;28;20080;-70
2021/05/20 00:16:45;;;;;;;52.28;27.90;;;8.60;99.90;;;;;;5030819;28;20291;-71
2021/05/20 00:19:18;;;;;;;64.95;32.40;;;8.60;99.90;;;;;;5006281;28;20144;-71
2021/05/20 00:21:45;;;;;;;64.10;34.20;;;8.50;99.90;;;;;;5002577;28;20049;-70
2021/05/20 00:24:18;;;;;;;67.78;34.72;;;8.50;99.90;;;;;;5005360;28;20057;-70
2021/05/20 00:26:45;;;;;;;68.88;35.13;;;8.50;99.90;;;;;;5021940;28;20107;-70
2021/05/20 00:29:19;;;;;;;63.00;33.25;;;8.50;99.90;;;;;;5024926;28;20057;-70
2021/05/20 00:31:46;;;;;;;54.10;29.02;;;8.50;99.90;;;;;;5023203;28;20119;-71
2021/05/20 00:34:18;;;;;;;54.88;29.23;;;8.50;99.90;;;;;;5024601;28;20052;-70
2021/05/20 00:36:45;;;;;;;51.50;29.60;;;8.40;99.90;;;;;;4986660;28;20041;-70
2021/05/20 00:39:16;;;;;;;57.53;29.80;;;8.40;99.90;;;;;;5012771;28;20057;-72
2021/05/20 00:41:44;;;;;;;60.10;30.85;;;8.30;99.90;;;;;;4951005;28;20125;-71
2021/05/20 00:44:20;;;;;;;56.17;30.67;;;8.30;99.90;;;;;;5017244;28;20117;-71
2021/05/20 00:46:47;;;;;;;57.20;30.27;;;8.30;99.90;;;;;;5003483;28;20051;-72
2021/05/20 00:49:22;;;;;;;55.88;29.15;;;8.30;99.90;;;;;;5004366;28;20170;-71
2021/05/20 00:51:50;;;;;;;59.28;32.40;;;8.30;99.90;;;;;;5030315;28;20040;-71
2021/05/20 00:54:25;;;;;;;63.42;32.35;;;8.30;99.90;;;;;;5040577;28;20110;-70
2021/05/20 00:56:53;;;;;;;63.88;32.03;;;8.30;99.90;;;;;;5017628;28;20575;-71
2021/05/20 00:59:21;;;;;;;65.70;34.17;;;8.30;99.90;;;;;;5010171;28;20057;-72
2021/05/20 01:01:49;;;;;;;66.40;34.67;;;8.30;99.90;;;;;;4985481;28;20148;-71
2021/05/20 01:04:18;;;;;;;63.65;33.45;;;8.30;99.90;;;;;;5022836;28;20493;-72
2021/05/20 01:06:45;;;;;;;68.43;32.97;;;8.30;99.90;;;;;;5006511;28;20107;-71
2021/05/20 01:09:18;;;;;;;65.88;32.45;;;8.30;99.90;;;;;;4989167;28;20145;-71
2021/05/20 01:11:49;;;;;;;77.60;39.72;;;8.30;99.90;;;;;;5006125;28;20095;-71
2021/05/20 01:14:26;;;;;;;71.45;35.80;;;8.40;99.90;;;;;;5006487;28;20108;-71
2021/05/20 01:16:54;;;;;;;60.70;33.45;;;8.40;99.90;;;;;;4981217;28;20049;-71
2021/05/20 01:19:22;;;;;;;71.60;35.38;;;8.30;99.90;;;;;;5025548;28;20137;-71
2021/05/20 01:21:50;;;;;;;60.55;32.10;;;8.30;99.90;;;;;;5017225;28;20045;-71
2021/05/20 01:24:22;;;;;;;60.78;34.08;;;8.40;99.90;;;;;;5005676;28;20092;-71
2021/05/20 01:26:50;;;;;;;65.72;33.05;;;8.30;99.90;;;;;;5030340;28;20052;-71
2021/05/20 01:29:20;;;;;;;61.90;34.03;;;8.30;99.90;;;;;;5021316;28;20075;-71
2021/05/20 01:31:48;;;;;;;63.33;34.90;;;8.40;99.90;;;;;;5005210;28;20047;-71
2021/05/20 01:34:20;;;;;;;63.30;35.55;;;8.40;99.90;;;;;;5021995;28;20053;-71
2021/05/20 01:36:47;;;;;;;71.30;36.05;;;8.40;99.90;;;;;;5002533;28;20072;-72
2021/05/20 01:39:19;;;;;;;72.45;35.35;;;8.40;99.90;;;;;;5021408;28;20429;-70
2021/05/20 01:41:46;;;;;;;78.53;38.70;;;8.40;99.90;;;;;;5004406;28;20068;-70
2021/05/20 01:44:22;;;;;;;70.13;36.03;;;8.40;99.90;;;;;;5021887;28;20136;-68
2021/05/20 01:46:49;;;;;;;68.65;35.53;;;8.40;99.90;;;;;;5010672;28;20045;-69
2021/05/20 01:49:19;;;;;;;67.22;34.13;;;8.30;99.90;;;;;;4983675;28;20604;-70
2021/05/20 01:51:46;;;;;;;75.82;36.83;;;8.40;99.90;;;;;;5011692;28;20485;-70
2021/05/20 01:54:19;;;;;;;68.57;36.10;;;8.30;99.90;;;;;;5025751;28;20077;-70
2021/05/20 01:56:46;;;;;;;71.63;37.28;;;8.30;99.90;;;;;;5014113;28;20049;-69
2021/05/20 01:59:18;;;;;;;79.65;38.70;;;8.30;99.90;;;;;;5024270;28;20160;-70
2021/05/20 02:01:45;;;;;;;80.55;39.47;;;8.30;99.90;;;;;;5024255;28;20432;-70
2021/05/20 02:04:26;;;;;;;86.05;38.58;;;8.40;99.90;;;;;;5008421;28;20140;-69
2021/05/20 02:06:53;;;;;;;84.40;40.33;;;8.30;99.90;;;;;;5017676;28;20506;-70
2021/05/20 02:09:21;;;;;;;85.65;41.05;;;8.40;99.90;;;;;;5010447;28;20052;-69
2021/05/20 02:11:48;;;;;;;93.03;42.72;;;8.30;99.90;;;;;;5023216;28;20061;-70
2021/05/20 02:14:25;;;;;;;96.50;44.40;;;8.30;99.90;;;;;;4995280;28;20510;-70
2021/05/20 02:16:56;;;;;;;105.10;44.25;;;8.30;99.90;;;;;;5011482;28;20096;-70
2021/05/20 02:19:24;;;;;;;109.40;46.78;;;8.30;99.90;;;;;;5009871;28;20045;-69
2021/05/20 02:21:51;;;;;;;89.97;44.92;;;8.30;99.90;;;;;;5021405;28;20042;-71
2021/05/20 02:24:19;;;;;;;124.05;51.13;;;8.30;99.90;;;;;;5009167;28;20472;-70
2021/05/20 02:26:46;;;;;;;127.95;52.10;;;8.40;99.90;;;;;;5003054;28;20141;-70
2021/05/20 02:29:19;;;;;;;126.00;52.20;;;8.30;99.90;;;;;;4992214;28;20064;-70
2021/05/20 02:31:47;;;;;;;136.37;54.73;;;8.30;99.90;;;;;;5000410;28;20056;-70
2021/05/20 02:34:19;;;;;;;140.52;56.28;;;8.50;99.90;;;;;;5027829;28;20049;-71
2021/05/20 02:36:46;;;;;;;153.00;60.50;;;8.60;99.90;;;;;;5025376;28;20073;-70
2021/05/20 02:39:21;;;;;;;133.60;56.97;;;8.70;99.90;;;;;;5025156;28;20123;-69
2021/05/20 02:41:48;;;;;;;;;;;8.70;99.90;;;;;;5022876;28;20041;-70
2021/05/20 02:44:19;;;;;;;153.75;60.83;;;8.70;99.90;;;;;;5024139;28;19932;-70
2021/05/20 02:46:46;;;;;;;158.02;61.70;;;8.70;99.90;;;;;;4993191;28;20045;-69
2021/05/20 02:49:20;;;;;;;155.07;64.00;;;8.60;99.90;;;;;;5020369;28;20092;-68
2021/05/20 02:51:47;;;;;;;169.33;64.80;;;8.70;99.90;;;;;;4976522;28;19944;-70
2021/05/20 02:54:21;;;;;;;168.35;65.00;;;8.70;99.90;;;;;;5023196;28;20300;-70
2021/05/20 02:56:48;;;;;;;165.27;66.28;;;8.70;99.90;;;;;;4999472;28;20466;-69
2021/05/20 02:59:20;;;;;;;163.98;66.28;;;8.80;99.90;;;;;;5005320;28;20290;-70
2021/05/20 03:01:48;;;;;;;185.15;68.82;;;8.80;99.90;;;;;;5020133;28;20111;-70
2021/05/20 03:04:22;;;;;;;185.95;68.35;;;8.80;99.90;;;;;;5004435;28;20149;-70
2021/05/20 03:06:48;;;;;;;229.05;75.97;;;8.80;99.90;;;;;;5004341;28;20148;-70
2021/05/20 03:09:23;;;;;;;215.85;74.30;;;8.70;99.90;;;;;;5027787;28;20308;-69
2021/05/20 03:11:50;;;;;;;;;;;8.70;99.90;;;;;;5028009;28;20045;-69
2021/05/20 03:14:21;;;;;;;225.40;76.03;;;8.70;99.90;;;;;;5024659;28;20011;-70
2021/05/20 03:16:49;;;;;;;253.68;81.80;;;8.60;99.90;;;;;;4982542;28;20084;-71
2021/05/20 03:19:21;;;;;;;255.25;80.13;;;8.60;99.90;;;;;;5015510;28;20124;-69
2021/05/20 03:21:49;;;;;;;197.20;71.75;;;8.50;99.90;;;;;;5003483;28;20140;-71
2021/05/20 03:24:23;;;;;;;195.13;71.38;;;8.50;99.90;;;;;;5014281;28;20137;-70
2021/05/20 03:26:50;;;;;;;198.80;72.90;;;8.50;99.90;;;;;;5006722;28;20099;-69
2021/05/20 03:29:22;;;;;;;233.73;78.20;;;8.60;99.90;;;;;;5024172;28;20168;-71
2021/05/20 03:31:48;;;;;;;211.85;76.80;;;8.60;99.90;;;;;;5033940;28;20313;-70
2021/05/20 03:34:18;;;;;;;229.02;76.75;;;8.60;99.90;;;;;;5024656;28;20056;-69
2021/05/20 03:36:47;;;;;;;232.20;81.65;;;8.70;99.90;;;;;;4983803;28;20119;-70
2021/05/20 03:39:21;;;;;;;227.70;77.38;;;8.60;99.90;;;;;;5004586;28;20045;-70
2021/05/20 03:41:48;;;;;;;234.65;78.07;;;8.60;99.90;;;;;;4999297;28;20220;-71
2021/05/20 03:44:21;;;;;;;200.55;73.03;;;8.60;99.90;;;;;;5024233;28;20064;-70
2021/05/20 03:46:49;;;;;;;204.73;73.82;;;8.60;99.90;;;;;;5000652;28;20100;-70
2021/05/20 03:49:22;;;;;;;171.52;66.22;;;8.50;99.90;;;;;;5007984;28;20138;-70
2021/05/20 03:51:49;;;;;;;164.45;66.25;;;8.50;99.90;;;;;;5001990;28;20489;-70
2021/05/20 03:54:21;;;;;;;166.30;68.13;;;8.50;99.90;;;;;;5022925;28;20095;-71
2021/05/20 03:56:48;;;;;;;179.32;66.72;;;8.60;99.90;;;;;;5005253;28;20141;-70
2021/05/20 03:59:24;;;;;;;162.77;62.08;;;8.70;99.90;;;;;;5006669;28;20088;-71
2021/05/20 04:01:51;;;;;;;156.35;61.45;;;8.80;99.90;;;;;;5009676;28;20042;-71
2021/05/20 04:04:24;;;;;;;156.43;62.67;;;8.80;99.90;;;;;;5005106;28;20423;-70
2021/05/20 04:06:51;;;;;;;137.60;58.58;;;8.80;99.90;;;;;;5004255;28;20572;-71
2021/05/20 04:09:23;;;;;;;126.28;54.10;;;8.70;99.90;;;;;;5008196;28;20067;-71
2021/05/20 04:11:50;;;;;;;110.35;54.33;;;8.80;99.90;;;;;;4991035;28;20057;-71
2021/05/20 04:14:24;;;;;;;117.68;53.47;;;8.90;99.90;;;;;;5031136;28;20045;-71
2021/05/20 04:16:51;;;;;;;114.53;53.08;;;8.90;99.90;;;;;;4976140;28;20464;-71
2021/05/20 04:19:22;;;;;;;116.30;51.10;;;8.90;99.90;;;;;;5016990;28;20037;-71
2021/05/20 04:21:49;;;;;;;110.53;51.42;;;8.90;99.90;;;;;;5018847;28;20273;-72
2021/05/20 04:24:24;;;;;;;103.47;50.22;;;8.80;99.90;;;;;;4978053;28;20041;-72
2021/05/20 04:26:54;;;;;;;107.63;53.15;;;8.80;99.90;;;;;;5022205;28;20413;-70
2021/05/20 04:29:23;;;;;;;110.93;52.47;;;8.80;99.90;;;;;;5031394;28;20052;-71
2021/05/20 04:31:51;;;;;;;110.82;53.25;;;8.80;99.90;;;;;;5040552;28;20107;-70
2021/05/20 04:34:23;;;;;;;109.38;53.25;;;8.80;99.90;;;;;;5025909;28;20520;-71
2021/05/20 04:36:50;;;;;;;112.60;54.20;;;8.80;99.90;;;;;;5001854;28;20141;-70
2021/05/20 04:39:24;;;;;;;111.53;54.97;;;8.90;99.90;;;;;;5023172;28;20054;-70
2021/05/20 04:41:51;;;;;;;108.60;54.75;;;8.90;99.90;;;;;;5020353;28;20051;-71
2021/05/20 04:44:21;;;;;;;109.63;54.00;;;8.90;99.90;;;;;;5016646;28;20147;-70
2021/05/20 04:46:49;;;;;;;114.45;54.15;;;8.80;99.90;;;;;;5002225;28;20575;-71
2021/05/20 04:49:23;;;;;;;116.15;53.60;;;8.90;99.90;;;;;;5000413;28;20050;-71
2021/05/20 04:51:50;;;;;;;116.35;55.78;;;8.80;99.90;;;;;;4991935;28;20131;-71
2021/05/20 04:54:20;;;;;;;125.18;58.70;;;8.80;99.90;;;;;;5022568;28;20132;-71
2021/05/20 04:56:49;;;;;;;122.38;60.92;;;8.80;99.90;;;;;;5005045;28;20136;-71
2021/05/20 04:59:24;;;;;;;122.68;56.85;;;8.90;99.90;;;;;;5020610;28;20160;-71
2021/05/20 05:01:51;;;;;;;120.10;57.63;;;8.90;99.90;;;;;;4998335;28;20041;-70
2021/05/20 05:04:22;;;;;;;126.78;59.53;;;8.80;99.90;;;;;;5001888;28;20498;-71
2021/05/20 05:06:49;;;;;;;120.78;57.80;;;8.80;99.90;;;;;;4985039;28;20078;-71
2021/05/20 05:09:22;;;;;;;118.82;57.00;;;8.80;99.90;;;;;;5002836;28;20049;-71
2021/05/20 05:11:50;;;;;;;130.38;57.75;;;8.80;99.90;;;;;;4998398;28;20474;-71
2021/05/20 05:14:21;;;;;;;129.57;61.35;;;8.70;99.90;;;;;;5000339;28;20140;-71
2021/05/20 05:16:49;;;;;;;124.70;60.40;;;8.70;99.90;;;;;;4985562;28;20498;-70
2021/05/20 05:19:23;;;;;;;126.45;60.35;;;8.80;99.90;;;;;;4968238;28;20046;-70
2021/05/20 05:21:51;;;;;;;119.20;57.23;;;8.80;99.90;;;;;;4984059;28;20293;-71
2021/05/20 05:24:21;;;;;;;123.60;56.85;;;8.80;99.90;;;;;;4986373;28;20116;-71
2021/05/20 05:26:49;;;;;;;130.85;61.55;;;8.80;99.90;;;;;;4969369;28;20096;-71
2021/05/20 05:29:23;;;;;;;131.65;61.40;;;8.80;99.90;;;;;;5005970;28;20510;-71
2021/05/20 05:31:50;;;;;;;139.82;65.72;;;8.70;99.90;;;;;;4990990;28;20128;-71
2021/05/20 05:34:22;;;;;;;139.90;67.38;;;8.70;99.90;;;;;;5000825;28;20597;-70
2021/05/20 05:36:49;;;;;;;144.48;68.45;;;8.60;99.90;;;;;;5001249;28;20062;-71
2021/05/20 05:39:22;;;;;;;155.05;70.00;;;8.70;99.90;;;;;;5008692;28;20057;-70
2021/05/20 05:41:49;;;;;;;145.75;67.07;;;8.70;99.90;;;;;;4951779;28;20100;-70
2021/05/20 05:44:22;;;;;;;151.10;66.50;;;8.80;99.90;;;;;;5017177;28;20198;-71
2021/05/20 05:46:49;;;;;;;152.80;67.13;;;8.80;99.90;;;;;;4989340;28;20496;-71
2021/05/20 05:49:19;;;;;;;152.07;67.35;;;8.70;99.90;;;;;;4987133;28;20136;-70
2021/05/20 05:51:52;;;;;;;159.27;71.35;;;8.80;99.90;;;;;;5007415;28;20162;-70
2021/05/20 05:54:22;;;;;;;154.43;68.35;;;8.70;99.90;;;;;;5004790;28;20426;-71
2021/05/20 05:56:49;;;;;;;146.18;66.70;;;8.70;99.90;;;;;;5004506;28;20128;-71
2021/05/20 05:59:23;;;;;;;153.15;68.95;;;8.70;99.90;;;;;;5022696;28;20091;-71
2021/05/20 06:01:50;;;;;;;152.43;69.78;;;8.70;99.90;;;;;;4990628;28;20056;-70
2021/05/20 06:04:22;;;;;;;136.38;65.68;;;8.80;99.90;;;;;;5015858;28;20516;-71
2021/05/20 06:06:49;;;;;;;155.63;67.75;;;8.90;99.90;;;;;;5001830;28;20096;-72
2021/05/20 06:09:25;;;;;;;171.38;72.15;;;8.90;99.90;;;;;;5015735;28;20095;-71
2021/05/20 06:11:52;;;;;;;159.63;71.60;;;8.90;99.90;;;;;;5017523;28;20057;-71
2021/05/20 06:14:24;;;;;;;141.55;68.68;;;8.90;99.90;;;;;;5016075;28;20080;-71
2021/05/20 06:16:52;;;;;;;140.88;63.72;;;9.00;99.90;;;;;;5019680;28;20434;-70
2021/05/20 06:19:24;;;;;;;147.27;65.65;;;8.80;99.90;;;;;;5020971;28;20426;-71
2021/05/20 06:21:51;;;;;;;131.70;60.17;;;8.70;99.90;;;;;;5002521;28;20045;-70
2021/05/20 06:24:25;;;;;;;135.25;59.10;;;8.70;99.90;;;;;;5018809;28;20073;-71
2021/05/20 06:26:52;;;;;;;144.57;65.63;;;8.70;99.90;;;;;;5002828;28;20057;-70
2021/05/20 06:29:24;;;;;;;153.35;63.25;;;8.70;99.90;;;;;;5003587;28;20545;-71
2021/05/20 06:31:51;;;;;;;147.77;65.85;;;8.70;99.90;;;;;;5023523;28;20112;-70
2021/05/20 06:34:24;;;;;;;142.18;61.60;;;8.70;99.90;;;;;;4988687;28;20065;-70
2021/05/20 06:36:56;;;;;;;128.35;59.60;;;8.80;99.90;;;;;;4989199;28;20128;-71
2021/05/20 06:39:24;;;;;;;123.38;57.88;;;8.90;99.90;;;;;;5004282;28;20509;-70
2021/05/20 06:41:50;;;;;;;136.40;61.03;;;8.90;99.90;;;;;;5022050;28;20069;-70
2021/05/20 06:44:24;;;;;;;143.43;63.55;;;8.90;99.90;;;;;;5017591;28;20046;-71
2021/05/20 06:46:51;;;;;;;129.23;61.83;;;9.10;99.90;;;;;;5012092;28;20037;-70
2021/05/20 06:49:25;;;;;;;109.70;52.30;;;9.10;99.90;;;;;;4999232;28;20041;-70
2021/05/20 06:51:52;;;;;;;89.45;47.22;;;9.10;99.90;;;;;;4995488;28;20136;-70
2021/05/20 06:54:25;;;;;;;88.80;47.50;;;9.00;99.90;;;;;;5045432;28;20501;-70
2021/05/20 06:57:03;;;;;;;72.60;42.55;;;9.10;99.90;;;;;;5039584;28;20049;-71
2021/05/20 07:02:15;;;;;;;78.45;43.60;;;9.30;99.90;;;;;;4998437;28;20077;-71
2021/05/20 07:04:42;;;;;;;69.50;41.38;;;9.50;99.90;;;;;;5006818;28;20064;-70
2021/05/20 07:07:08;;;;;;;78.63;45.63;;;9.60;99.90;;;;;;5024139;28;20045;-71
2021/05/20 07:09:39;;;;;;;85.93;48.35;;;9.60;99.90;;;;;;5024743;28;20050;-70
2021/05/20 07:12:06;;;;;;;81.57;45.80;;;9.60;99.90;;;;;;5007966;28;20049;-71
2021/05/20 07:14:33;;;;;;;77.18;45.38;;;9.80;99.90;;;;;;5024393;28;20160;-71
2021/05/20 07:17:00;;;;;;;69.22;41.83;;;9.90;99.90;;;;;;4989148;28;20124;-69
2021/05/20 07:19:28;;;;;;;69.82;42.10;;;9.80;99.90;;;;;;4990107;28;20045;-70
2021/05/20 07:21:55;;;;;;;75.20;43.75;;;9.90;99.90;;;;;;4991215;28;20136;-70
2021/05/20 07:24:24;;;;;;;73.68;44.80;;;10.00;99.90;;;;;;4989593;28;20064;-70
2021/05/20 07:26:53;;;;;;;64.50;40.80;;;10.20;99.90;;;;;;4988951;28;20049;-70
2021/05/20 07:29:25;;;;;;;66.03;41.42;;;10.50;99.90;;;;;;5005786;28;20537;-71
2021/05/20 07:31:52;;;;;;;61.58;36.38;;;10.30;99.90;;;;;;5018374;28;20080;-71
2021/05/20 07:34:24;;;;;;;58.95;35.22;;;10.30;99.90;;;;;;5003484;28;20053;-70
2021/05/20 07:37:12;;;;;;;50.67;31.35;;;10.20;99.90;;;;;;4998917;28;20077;-70
2021/05/20 07:39:39;;;;;;;51.63;32.67;;;10.40;99.90;;;;;;5007732;28;20298;-69
2021/05/20 07:42:06;;;;;;;48.38;32.08;;;10.50;99.90;;;;;;5004501;28;20076;-70
2021/05/20 07:44:36;;;;;;;48.63;31.02;;;10.50;99.90;;;;;;4987834;28;20193;-70
2021/05/20 07:47:03;;;;;;;46.45;30.58;;;10.80;99.90;;;;;;4974351;28;20057;-70
2021/05/20 07:49:31;;;;;;;46.60;30.08;;;10.80;99.90;;;;;;5018909;28;20099;-71
2021/05/20 07:51:58;;;;;;;51.45;31.48;;;10.70;99.90;;;;;;4999323;28;20132;-70
2021/05/20 07:54:26;;;;;;;51.42;31.33;;;10.90;99.90;;;;;;4996696;28;20140;-71
2021/05/20 07:56:54;;;;;;;44.50;28.92;;;10.90;99.90;;;;;;5005442;28;20476;-70
2021/05/20 07:59:24;;;;;;;50.78;30.98;;;11.00;99.90;;;;;;5022724;28;20529;-70
2021/05/20 08:02:01;;;;;;;47.55;29.15;;;11.30;99.90;;;;;;5002291;28;20041;-71
2021/05/20 08:04:30;;;;;;;43.08;29.10;;;11.50;99.90;;;;;;5008046;28;20054;-70
2021/05/20 08:07:38;;;;;;;43.53;27.98;;;11.70;99.90;;;;;;5002380;28;20054;-70
2021/05/20 08:41:49;;;;;;;35.67;27.08;;;13.90;99.90;;;;;;4988417;28;20429;-71
2021/05/20 08:44:25;;;;;;;42.50;30.15;;;13.90;99.90;;;;;;5003120;28;20165;-73
2021/05/20 08:47:10;;;;;;;44.33;29.27;;;13.30;99.90;;;;;;5016517;28;20539;-74
2021/05/20 08:49:38;;;;;;;42.67;30.90;;;12.70;99.90;;;;;;5015259;28;20077;-73
2021/05/20 08:52:05;;;;;;;38.83;27.23;;;12.80;99.90;;;;;;5016499;28;20679;-73
2021/05/20 08:54:46;;;;;;;35.53;28.17;;;13.20;99.90;;;;;;5019368;28;20079;-70
2021/05/20 08:57:13;;;;;;;36.40;27.80;;;13.90;99.90;;;;;;5016833;28;20037;-70
2021/05/20 08:59:40;;;;;;;33.92;27.45;;;13.90;99.90;;;;;;5002922;28;20561;-71
2021/05/20 09:02:20;;;;;;;38.63;28.05;;;13.50;99.90;;;;;;5018915;28;20062;-70
2021/05/20 09:04:56;;;;;;;36.60;26.77;;;13.30;99.90;;;;;;5001885;28;20146;-71
2021/05/20 09:07:33;;;;;;;38.42;29.13;;;13.30;99.90;;;;;;5017861;28;20470;-71
2021/05/20 09:10:07;;;;;;;33.88;26.52;;;13.40;99.90;;;;;;5002041;28;20064;-71
2021/05/20 09:12:34;;;;;;;35.65;27.63;;;13.80;99.90;;;;;;5017169;28;20636;-70
2021/05/20 09:15:01;;;;;;;31.77;23.85;;;14.20;99.90;;;;;;5021257;28;20812;-72
2021/05/20 09:17:28;;;;;;;31.10;26.27;;;14.60;99.90;;;;;;5023977;28;20050;-70
2021/05/20 09:20:00;;;;;;;29.33;25.15;;;14.10;99.90;;;;;;4985419;28;20502;-71
2021/05/20 09:22:28;;;;;;;27.25;22.95;;;14.20;99.90;;;;;;4999747;28;20140;-71
2021/05/20 09:24:58;;;;;;;26.95;24.05;;;14.60;99.90;;;;;;5015752;28;20045;-72
2021/05/20 09:27:36;;;;;;;30.00;25.13;;;14.60;99.90;;;;;;5018569;28;20069;-71
2021/05/20 09:30:06;;;;;;;33.60;26.98;;;14.20;99.90;;;;;;5019965;28;20054;-71
2021/05/20 09:32:37;;;;;;;32.53;26.85;;;13.70;99.90;;;;;;5017198;28;20575;-71
2021/05/20 09:35:05;;;;;;;32.80;24.08;;;13.60;99.90;;;;;;4986873;28;20041;-71
2021/05/20 09:37:35;;;;;;;27.17;23.20;;;14.00;99.90;;;;;;5014645;28;20133;-71
2021/05/20 09:40:04;;;;;;;30.60;23.98;;;14.30;99.90;;;;;;4999467;28;20052;-71
2021/05/20 09:42:31;;;;;;;25.60;22.73;;;14.90;99.90;;;;;;4998452;28;20072;-71
2021/05/20 09:45:07;;;;;;;26.48;23.58;;;15.30;99.90;;;;;;4970808;28;20159;-70
2021/05/20 09:47:34;;;;;;;27.08;24.20;;;15.70;99.90;;;;;;5023256;28;20132;-71
2021/05/20 09:50:06;;;;;;;28.15;25.17;;;15.80;99.90;;;;;;5016494;28;20096;-71
2021/05/20 09:52:33;;;;;;;28.23;25.05;;;15.80;99.90;;;;;;5002425;28;20053;-71
2021/05/20 09:55:01;;;;;;;28.83;25.45;;;15.90;99.90;;;;;;5014579;28;20079;-71
2021/05/20 09:57:29;;;;;;;27.38;24.65;;;15.90;99.90;;;;;;4998393;28;20077;-71
2021/05/20 10:00:12;;;;;;;24.88;22.27;;;15.90;99.90;;;;;;5015383;28;20049;-70
2021/05/20 10:02:40;;;;;;;22.90;20.60;;;16.20;99.90;;;;;;5014768;28;20079;-71
2021/05/20 10:05:21;;;;;;;24.98;22.52;;;16.10;99.90;;;;;;5021482;28;20081;-71
2021/05/20 10:07:49;;;;;;;24.75;22.17;;;16.20;99.90;;;;;;5001531;28;20053;-71
2021/05/20 10:10:33;;;;;;;25.42;22.33;;;16.20;99.90;;;;;;5016888;28;20072;-71
2021/05/20 10:13:09;;;;;;;27.80;24.90;;;16.00;99.90;;;;;;5012091;28;20111;-71
2021/05/20 10:15:36;;;;;;;25.92;23.45;;;16.30;99.90;;;;;;4999289;28;20901;-72
2021/05/20 10:18:18;;;;;;;27.63;23.30;;;16.70;99.90;;;;;;5022505;28;20053;-71
2021/05/20 10:20:47;;;;;;;27.83;25.00;;;16.70;99.90;;;;;;5014890;28;20413;-72
2021/05/20 10:23:17;;;;;;;30.02;25.65;;;16.30;99.90;;;;;;5016480;28;20053;-71
2021/05/20 10:25:45;;;;;;;26.75;24.05;;;15.80;99.90;;;;;;4990184;28;20527;-70
2021/05/20 10:28:14;;;;;;;25.33;22.80;;;16.10;99.90;;;;;;5011379;28;20062;-72
2021/05/20 10:30:44;;;;;;;24.15;21.67;;;16.40;99.90;;;;;;5019269;28;20451;-72
2021/05/20 10:33:11;;;;;;;23.35;21.05;;;16.60;99.90;;;;;;5005290;28;20047;-71
2021/05/20 10:35:48;;;;;;;25.02;22.35;;;16.80;99.90;;;;;;5003221;28;20050;-71
2021/05/20 10:38:17;;;;;;;26.05;23.45;;;16.60;99.90;;;;;;5023870;28;20060;-71
2021/05/20 10:40:44;;;;;;;25.40;22.75;;;16.00;99.90;;;;;;5001515;28;20045;-71
2021/05/20 10:43:18;;;;;;;26.10;23.58;;;16.10;99.90;;;;;;5020794;28;20084;-71
2021/05/20 10:46:05;;;;;;;24.25;21.77;;;16.30;99.90;;;;;;5021277;28;20297;-71
2021/05/20 10:48:36;;;;;;;23.65;21.45;;;16.50;99.90;;;;;;5002812;28;20054;-71
2021/05/20 10:51:19;;;;;;;24.98;22.58;;;16.70;99.90;;;;;;4967461;28;20119;-72
2021/05/20 10:54:02;;;;;;;25.08;22.63;;;16.80;99.90;;;;;;5019734;28;20052;-72
2021/05/20 10:56:28;;;;;;;23.40;21.10;;;16.80;99.90;;;;;;5019811;28;20279;-71
2021/05/20 10:58:57;;;;;;;26.63;23.83;;;16.90;99.90;;;;;;5021461;28;20060;-71
2021/05/20 11:01:24;;;;;;;23.98;21.48;;;17.10;99.90;;;;;;5017703;28;20142;-72
2021/05/20 11:03:59;;;;;;;25.30;22.77;;;16.90;99.90;;;;;;5014587;28;20048;-71
2021/05/20 11:06:38;;;;;;;26.40;23.55;;;16.60;99.90;;;;;;5001647;28;20405;-72
2021/05/20 11:09:06;;;;;;;23.60;21.25;;;16.50;99.90;;;;;;5002796;28;20061;-72
2021/05/20 11:11:32;;;;;;;24.23;21.85;;;16.80;99.90;;;;;;5015628;28;20045;-72
2021/05/20 11:14:00;;;;;;;23.42;21.27;;;17.20;99.90;;;;;;5017015;28;20238;-72
2021/05/20 11:16:32;;;;;;;23.83;21.42;;;16.90;99.90;;;;;;5022814;28;20201;-72
2021/05/20 11:22:09;;;;;;;23.05;20.92;;;16.10;99.90;;;;;;5003316;28;20065;-72
2021/05/20 11:24:42;;;;;;;23.65;21.38;;;16.30;99.90;;;;;;5002275;28;20053;-72
2021/05/20 11:27:15;;;;;;;22.45;20.23;;;16.60;99.90;;;;;;4999943;28;20598;-72
2021/05/20 11:29:44;;;;;;;20.90;19.00;;;16.90;99.90;;;;;;4972305;28;20437;-72
2021/05/20 11:32:29;;;;;;;21.10;19.10;;;17.40;99.90;;;;;;5005328;28;20051;-72
2021/05/20 11:35:37;;;;;;;21.70;19.65;;;17.60;99.90;;;;;;5000133;28;20060;-72
2021/05/20 11:38:26;;;;;;;22.50;20.27;;;17.40;99.90;;;;;;5021417;28;20116;-72
2021/05/20 11:40:54;;;;;;;23.08;20.90;;;17.70;99.90;;;;;;5014034;28;20048;-72
2021/05/20 11:43:30;;;;;;;23.35;21.08;;;17.40;99.90;;;;;;5021952;28;20418;-72
2021/05/20 11:45:58;;;;;;;24.45;21.92;;;17.20;99.90;;;;;;5003859;28;20076;-72
2021/05/20 11:48:24;;;;;;;28.75;24.38;;;17.40;99.90;;;;;;5006196;28;20553;-70
2021/05/20 11:50:53;;;;;;;23.95;21.55;;;17.20;99.90;;;;;;4987005;28;20516;-70
2021/05/20 11:53:21;;;;;;;23.17;20.95;;;17.40;99.90;;;;;;5007872;28;20082;-71
2021/05/20 11:55:49;;;;;;;21.85;20.13;;;17.60;99.90;;;;;;5002224;28;20081;-71
2021/05/20 11:58:18;;;;;;;23.30;21.17;;;17.90;99.90;;;;;;4986081;28;20040;-71
2021/05/20 12:00:48;;;;;;;22.83;20.75;;;18.00;99.90;;;;;;5003764;28;20476;-71
2021/05/20 12:03:27;;;;;;;22.30;20.45;;;18.20;99.90;;;;;;5006242;28;20437;-70
2021/05/20 12:05:56;;;;;;;21.30;19.52;;;18.30;99.90;;;;;;5010151;28;20429;-70
2021/05/20 12:08:23;;;;;;;20.23;18.23;;;18.60;99.90;;;;;;4987404;28;20089;-70
2021/05/20 12:10:51;;;;;;;20.08;18.27;;;18.70;99.90;;;;;;4995785;28;20569;-71
2021/05/20 12:13:20;;;;;;;21.67;19.75;;;18.40;99.90;;;;;;5020944;28;20049;-71
2021/05/20 12:15:49;;;;;;;22.52;20.45;;;17.70;99.90;;;;;;4995929;28;20064;-71
2021/05/20 12:18:21;;;;;;;23.48;21.30;;;17.00;99.90;;;;;;5018952;28;20139;-71
2021/05/20 12:20:50;;;;;;;22.35;20.10;;;17.00;99.90;;;;;;4983699;28;20064;-71
2021/05/20 12:23:29;;;;;;;23.63;21.52;;;17.30;99.90;;;;;;4990941;28;20053;-70
2021/05/20 12:25:57;;;;;;;23.17;21.25;;;17.10;99.90;;;;;;5021440;28;20061;-71
2021/05/20 12:28:24;;;;;;;24.45;22.25;;;17.20;99.90;;;;;;5017142;28;20152;-71
2021/05/20 12:30:51;;;;;;;22.83;20.73;;;17.20;99.90;;;;;;5005138;28;20521;-71
2021/05/20 12:33:18;;;;;;;22.73;20.50;;;17.50;99.90;;;;;;5023912;28;20122;-71
2021/05/20 12:35:45;;;;;;;21.85;19.95;;;17.70;99.90;;;;;;5004415;28;20049;-74
2021/05/20 12:38:28;;;;;;;23.25;21.15;;;18.10;99.90;;;;;;5018408;28;20070;-73
2021/05/20 12:41:00;;;;;;;22.45;20.42;;;18.20;99.90;;;;;;5003451;28;20044;-76
2021/05/20 12:43:28;;;;;;;22.70;20.75;;;18.10;99.90;;;;;;5005527;28;20061;-74
2021/05/20 12:46:05;;;;;;;22.08;20.10;;;18.20;99.90;;;;;;4993197;28;20048;-74
2021/05/20 12:48:33;;;;;;;23.33;21.15;;;18.50;99.90;;;;;;4989760;28;20435;-74
2021/05/20 12:51:13;;;;;;;25.20;22.50;;;18.20;99.90;;;;;;5002790;28;20056;-73
2021/05/20 12:53:42;;;;;;;23.73;21.40;;;17.60;99.90;;;;;;4994390;28;20046;-74
2021/05/20 12:56:25;;;;;;;25.17;22.92;;;17.20;99.90;;;;;;4961947;28;20291;-74
2021/05/20 12:58:57;;;;;;;24.40;22.25;;;17.20;99.90;;;;;;5001844;28;20144;-74
2021/05/20 13:01:26;;;;;;;24.88;22.27;;;17.70;99.90;;;;;;4985634;28;20071;-74
2021/05/20 13:03:58;;;;;;;24.83;22.60;;;18.00;99.90;;;;;;5019010;28;20077;-74
2021/05/20 13:06:25;;;;;;;23.88;21.58;;;17.80;99.90;;;;;;5009231;28;20060;-73
2021/05/20 13:08:54;;;;;;;24.85;22.63;;;17.30;99.90;;;;;;5012055;28;20100;-74
2021/05/20 13:11:30;;;;;;;24.63;22.20;;;16.80;99.90;;;;;;4961274;28;20284;-75
2021/05/20 13:17:19;;;;;;;25.15;22.90;;;17.30;99.90;;;;;;5016277;28;20057;-75
2021/05/20 13:22:30;;;;;;;22.38;20.15;;;17.90;99.90;;;;;;5020889;28;20148;-73
2021/05/20 13:25:20;;;;;;;23.67;21.33;;;18.20;99.90;;;;;;4988768;28;20192;-73
2021/05/20 13:27:59;;;;;;;24.52;21.58;;;17.80;99.90;;;;;;4969661;28;20422;-74
2021/05/20 13:33:24;;;;;;;23.85;21.50;;;17.00;99.90;;;;;;4970569;28;20152;-73
2021/05/20 13:35:52;;;;;;;24.98;22.75;;;16.70;99.90;;;;;;4992122;28;20132;-73